Time;durP1;ratioP1;P1;durP2;ratioP2;P2;SDS_P1;SDS_P2;PMS_P1;PMS_P2;Temp;Humidity;BMP_temperature;BMP_pressure;BME280_temperature;BME280_humidity;BME280_pressure;Samples;Min_cycle;Max_cycle;Signal;HPM_P1;HPM_P2
2023/07/19 00:01:06;;;;;;;;;;;;;;;-145.06;0.00;60892.56;5855381;23;19913;-90
2023/07/19 00:03:45;;;;;;;;;;;;;;;-145.06;0.00;60892.56;5855474;23;19909;-89
2023/07/19 00:06:24;;;;;;;;;;;;;;;-145.06;0.00;60892.56;5854989;23;19909;-90
2023/07/19 00:09:04;;;;;;;;;;;;;;;-145.06;0.00;60892.56;5856064;23;19917;-89
2023/07/19 00:11:43;;;;;;;;;;;;;;;-145.06;0.00;60892.56;5855248;23;19905;-89
2023/07/19 00:14:22;;;;;;;;;;;;;;;-145.06;0.00;60892.56;5856211;23;19911;-89
2023/07/19 00:17:01;;;;;;;;;;;;;;;-145.06;0.00;60892.56;5887566;23;19909;-89
2023/07/19 00:19:40;;;;;;;;;;;;;;;-145.06;0.00;60892.56;5857171;23;19909;-90
2023/07/19 00:22:19;;;;;;;;;;;;;;;-145.06;0.00;60892.56;5855965;23;19909;-90
2023/07/19 00:24:58;;;;;;;;;;;;;;;-145.06;0.00;60892.56;5856084;23;20313;-90
2023/07/19 00:27:37;;;;;;;;;;;;;;;-145.06;0.00;60892.56;5876917;23;19905;-89
2023/07/19 00:30:16;;;;;;;;;;;;;;;-145.06;0.00;60892.56;5855242;23;19917;-89
2023/07/19 00:32:55;;;;;;;;;;;;;;;-145.06;0.00;60892.56;5856206;23;19913;-89
2023/07/19 00:35:33;;;;;;;;;;;;;;;-145.06;0.00;60892.56;5858608;23;19909;-90
2023/07/19 00:38:14;;;;;;;;;;;;;;;-145.06;0.00;60892.56;5857982;23;20317;-89
2023/07/19 00:40:53;;;;;;;;;;;;;;;-145.06;0.00;60892.56;5857554;23;19905;-90
2023/07/19 00:43:32;;;;;;;;;;;;;;;-145.06;0.00;60892.56;5858941;23;19909;-91
2023/07/19 00:46:11;;;;;;;;;;;;;;;-145.06;0.00;60892.56;5858926;23;20388;-90
2023/07/19 00:48:50;;;;;;;;;;;;;;;-145.06;0.00;60892.56;5857397;23;19909;-90
2023/07/19 00:51:29;;;;;;;;;;;;;;;-145.06;0.00;60892.56;5857065;23;20027;-89
2023/07/19 00:54:08;;;;;;;;;;;;;;;-145.06;0.00;60892.56;5858009;23;20176;-89
2023/07/19 00:56:48;;;;;;;;;;;;;;;-145.06;0.00;60892.56;5857331;23;19905;-89
2023/07/19 00:59:27;;;;;;;;;;;;;;;-145.06;0.00;60892.56;5858723;23;19909;-90
2023/07/19 01:02:06;;;;;;;;;;;;;;;-145.06;0.00;60892.56;5888314;23;19909;-90
2023/07/19 01:04:45;;;;;;;;;;;;;;;-145.06;0.00;60892.56;5857416;23;20325;-90
2023/07/19 01:07:24;;;;;;;;;;;;;;;-145.06;0.00;60892.56;5856739;23;19909;-89
2023/07/19 01:10:04;;;;;;;;;;;;;;;-145.06;0.00;60892.56;5856824;23;20357;-90
2023/07/19 01:12:43;;;;;;;;;;;;;;;-145.06;0.00;60892.56;5856710;23;20226;-90
2023/07/19 01:15:22;;;;;;;;;;;;;;;-145.06;0.00;60892.56;5870214;23;19905;-91
2023/07/19 01:18:01;;;;;;;;;;;;;;;-145.06;0.00;60892.56;5872426;23;19909;-90
2023/07/19 01:20:40;;;;;;;;;;;;;;;-145.06;0.00;60892.56;5857806;23;19909;-90
2023/07/19 01:23:19;;;;;;;;;;;;;;;-145.06;0.00;60892.56;5878959;23;20552;-90
2023/07/19 01:25:58;;;;;;;;;;;;;;;-145.06;0.00;60892.56;5857969;23;20301;-90
2023/07/19 01:28:37;;;;;;;;;;;;;;;-145.06;0.00;60892.56;5858355;23;19905;-90
2023/07/19 01:31:16;;;;;;;;;;;;;;;-145.06;0.00;60892.56;5857235;23;20289;-90
2023/07/19 01:33:55;;;;;;;;;;;;;;;-145.06;0.00;60892.56;5858161;23;19933;-90
2023/07/19 01:36:34;;;;;;;;;;;;;;;-145.06;0.00;60892.56;5857734;23;20253;-89
2023/07/19 01:39:13;;;;;;;;;;;;;;;-145.06;0.00;60892.56;5857914;23;19909;-90
2023/07/19 01:41:52;;;;;;;;;;;;;;;-145.06;0.00;60892.56;5857231;23;20089;-91
2023/07/19 01:44:31;;;;;;;;;;;;;;;-145.06;0.00;60892.56;5879571;23;19909;-90
2023/07/19 01:47:10;;;;;;;;;;;;;;;-145.06;0.00;60892.56;5856284;23;19905;-90
2023/07/19 01:49:49;;;;;;;;;;;;;;;-145.06;0.00;60892.56;5856185;23;19988;-89
2023/07/19 01:52:28;;;;;;;;;;;;;;;-145.06;0.00;60892.56;5856773;23;19944;-90
2023/07/19 01:55:07;;;;;;;;;;;;;;;-145.06;0.00;60892.56;5856601;23;19909;-89
2023/07/19 01:57:46;;;;;;;;;;;;;;;-145.06;0.00;60892.56;5858160;23;19909;-90
2023/07/19 02:00:25;;;;;;;;;;;;;;;-145.06;0.00;60892.56;5856981;23;20226;-89
2023/07/19 02:03:04;;;;;;;;;;;;;;;-145.06;0.00;60892.56;5856843;23;20325;-90
2023/07/19 02:05:43;;;;;;;;;;;;;;;-145.06;0.00;60892.56;5856468;23;19908;-89
2023/07/19 02:08:22;;;;;;;;;;;;;;;-145.06;0.00;60892.56;5856660;23;19905;-90
2023/07/19 02:11:01;;;;;;;;;;;;;;;-145.06;0.00;60892.56;5888031;23;19932;-90
2023/07/19 02:13:40;;;;;;;;;;;;;;;-145.06;0.00;60892.56;5857739;23;19909;-89
2023/07/19 02:16:19;;;;;;;;;;;;;;;-145.06;0.00;60892.56;5889250;23;19917;-90
2023/07/19 02:18:58;;;;;;;;;;;;;;;-145.06;0.00;60892.56;5887999;23;19929;-89
2023/07/19 02:21:37;;;;;;;;;;;;;;;-145.06;0.00;60892.56;5856013;23;19905;-89
2023/07/19 02:24:16;;;;;;;;;;;;;;;-145.06;0.00;60892.56;5859319;23;20289;-89
2023/07/19 02:26:55;;;;;;;;;;;;;;;-145.06;0.00;60892.56;5856773;23;19909;-89
2023/07/19 02:29:34;;;;;;;;;;;;;;;-145.06;0.00;60892.56;5857358;23;20218;-89
2023/07/19 02:32:13;;;;;;;;;;;;;;;-145.06;0.00;60892.56;5855687;23;19909;-90
2023/07/19 02:34:53;;;;;;;;;;;;;;;-145.06;0.00;60892.56;5857595;23;19905;-89
2023/07/19 02:37:32;;;;;;;;;;;;;;;-145.06;0.00;60892.56;5858240;23;19909;-89
2023/07/19 02:40:10;;;;;;;;;;;;;;;-145.06;0.00;60892.56;5856674;23;19909;-89
2023/07/19 02:42:49;;;;;;;;;;;;;;;-145.06;0.00;60892.56;5857618;23;19905;-89
2023/07/19 02:45:28;;;;;;;;;;;;;;;-145.06;0.00;60892.56;5858557;23;19949;-89
2023/07/19 02:48:07;;;;;;;;;;;;;;;-145.06;0.00;60892.56;5857486;23;19905;-90
2023/07/19 02:50:46;;;;;;;;;;;;;;;-145.06;0.00;60892.56;5857104;23;19917;-89
2023/07/19 02:53:26;;;;;;;;;;;;;;;-145.06;0.00;60892.56;5857144;23;19945;-90
2023/07/19 02:56:05;;;;;;;;;;;;;;;-145.06;0.00;60892.56;5857710;23;20226;-89
2023/07/19 02:58:44;;;;;;;;;;;;;;;-145.06;0.00;60892.56;5888787;23;20094;-90
2023/07/19 03:01:23;;;;;;;;;;;;;;;-145.06;0.00;60892.56;5856592;23;19909;-90
2023/07/19 03:04:02;;;;;;;;;;;;;;;-145.06;0.00;60892.56;5889414;23;20336;-89
2023/07/19 03:06:41;;;;;;;;;;;;;;;-145.06;0.00;60892.56;5856672;23;19937;-88
2023/07/19 03:09:20;;;;;;;;;;;;;;;-145.06;0.00;60892.56;5856862;23;19913;-89
2023/07/19 03:11:59;;;;;;;;;;;;;;;-145.06;0.00;60892.56;5857633;23;19904;-90
2023/07/19 03:14:39;;;;;;;;;;;;;;;-145.06;0.00;60892.56;5857586;23;19909;-89
2023/07/19 03:17:17;;;;;;;;;;;;;;;-145.06;0.00;60892.56;5857772;23;19905;-90
2023/07/19 03:19:56;;;;;;;;;;;;;;;-145.06;0.00;60892.56;5856105;23;19913;-89
2023/07/19 03:22:35;;;;;;;;;;;;;;;-145.06;0.00;60892.56;5856982;23;20139;-90
2023/07/19 03:25:14;;;;;;;;;;;;;;;-145.06;0.00;60892.56;5856300;23;19909;-89
2023/07/19 03:27:54;;;;;;;;;;;;;;;-145.06;0.00;60892.56;5857309;23;19929;-89
2023/07/19 03:30:40;;;;;;;;;;;;;;;-145.06;100.00;60892.56;4914252;27;19970;-92
2023/07/19 03:33:19;;;;;;;;;;;;;;;-145.06;100.00;60892.56;4926006;28;20262;-91
2023/07/19 03:35:58;;;;;;;;;;;;;;;-145.06;100.00;60892.56;4909475;28;19917;-91
2023/07/19 03:38:37;;;;;;;;;;;;;;;-145.06;100.00;60892.56;4910129;28;19920;-91
2023/07/19 03:41:16;;;;;;;;;;;;;;;-145.06;100.00;60892.56;4909000;28;19920;-91
2023/07/19 03:43:55;;;;;;;;;;;;;;;-145.06;100.00;60892.56;4904150;28;20772;-90
2023/07/19 03:46:34;;;;;;;;;;;;;;;-145.06;100.00;60892.56;4905250;28;20359;-91
2023/07/19 03:49:12;;;;;;;;;;;;;;;-145.06;100.00;60892.56;4908358;28;19952;-91
2023/07/19 03:51:52;;;;;;;;;;;;;;;-145.06;100.00;60892.56;4904326;28;19959;-90
2023/07/19 03:54:30;;;;;;;;;;;;;;;-145.06;100.00;60892.56;4910766;28;19920;-91
2023/07/19 03:57:09;;;;;;;;;;;;;;;-145.06;100.00;60892.56;4909308;28;20044;-91
2023/07/19 03:59:49;;;;;;;;;;;;;;;-145.06;100.00;60892.56;4908566;28;19920;-92
2023/07/19 04:02:28;;;;;;;;;;;;;;;-145.06;100.00;60892.56;4908410;28;19916;-91
2023/07/19 04:05:07;;;;;;;;;;;;;;;-145.06;100.00;60892.56;4905820;28;19925;-91
2023/07/19 04:07:46;;;;;;;;;;;;;;;-145.06;100.00;60892.56;4911564;28;19920;-91
2023/07/19 04:10:25;;;;;;;;;;;;;;;-145.06;100.00;60892.56;4909082;28;19920;-91
2023/07/19 04:13:04;;;;;;;;;;;;;;;187.52;100.00;60892.56;4911023;28;19920;-91
2023/07/19 04:15:43;;;;;;;;;;;;;;;-145.06;100.00;60892.56;4906561;28;20110;-92
2023/07/19 04:18:22;;;;;;;;;;;;;;;-145.06;100.00;60892.56;4904522;28;19920;-91
2023/07/19 04:21:02;;;;;;;;;;;;;;;-145.06;100.00;60892.56;4900575;28;19912;-91
2023/07/19 04:23:41;;;;;;;;;;;;;;;-145.06;100.00;60892.56;4907925;28;19916;-91
2023/07/19 04:26:20;;;;;;;;;;;;;;;-145.06;100.00;60892.56;4906647;28;19916;-91
2023/07/19 04:28:59;;;;;;;;;;;;;;;-145.06;100.00;60892.56;4918188;28;19924;-91
2023/07/19 04:31:38;;;;;;;;;;;;;;;-145.06;100.00;60892.56;4921584;28;20003;-91
2023/07/19 04:34:17;;;;;;;;;;;;;;;-145.06;100.00;60892.56;4914589;27;19955;-91
2023/07/19 04:36:56;;;;;;;;;;;;;;;-145.06;100.00;60892.56;4909587;28;19920;-90
2023/07/19 04:39:35;;;;;;;;;;;;;;;-145.06;100.00;60892.56;4904387;28;19920;-91
2023/07/19 04:42:14;;;;;;;;;;;;;;;-145.06;100.00;60892.56;4897376;28;19916;-91
2023/07/19 04:44:53;;;;;;;;;;;;;;;-145.06;100.00;60892.56;4897716;28;19916;-90
2023/07/19 04:47:32;;;;;;;;;;;;;;;-145.06;100.00;60892.56;4900320;28;19916;-91
2023/07/19 04:50:11;;;;;;;;;;;;;;;-145.06;100.00;60892.56;4903011;28;20370;-90
2023/07/19 04:52:51;;;;;;;;;;;;;;;-145.06;100.00;60892.56;4892980;28;20011;-91
2023/07/19 04:55:30;;;;;;;;;;;;;;;-145.06;100.00;60892.56;4896156;28;20083;-91
2023/07/19 04:58:09;;;;;;;;;;;;;;;-145.06;100.00;60892.56;4895673;28;20344;-92
2023/07/19 05:00:48;;;;;;;;;;;;;;;-145.06;100.00;60892.56;4895753;28;20020;-90
2023/07/19 05:03:27;;;;;;;;;;;;;;;-145.06;100.00;60892.56;4899885;28;19920;-91
2023/07/19 05:06:06;;;;;;;;;;;;;;;-145.06;100.00;60892.56;4893258;28;19916;-90
2023/07/19 05:08:45;;;;;;;;;;;;;;;-145.06;100.00;60892.56;4894995;28;19920;-91
2023/07/19 05:11:25;;;;;;;;;;;;;;;-145.06;100.00;60892.56;4894620;28;20268;-91
2023/07/19 05:14:04;;;;;;;;;;;;;;;-145.06;100.00;60892.56;4892660;28;19921;-91
2023/07/19 05:16:43;;;;;;;;;;;;;;;-145.06;100.00;60892.56;4894384;28;19979;-91
2023/07/19 05:19:22;;;;;;;;;;;;;;;-145.06;100.00;60892.56;4900096;28;19960;-91
2023/07/19 05:22:01;;;;;;;;;;;;;;;-145.06;100.00;60892.56;4892742;28;19960;-91
2023/07/19 05:24:40;;;;;;;;;;;;;;;-145.06;100.00;60892.56;4899397;28;20374;-92
2023/07/19 05:27:19;;;;;;;;;;;;;;;-145.06;100.00;60892.56;4893489;28;19959;-90
2023/07/19 05:29:58;;;;;;;;;;;;;;;-145.06;100.00;60892.56;4891104;28;19944;-91
2023/07/19 05:32:37;;;;;;;;;;;;;;;-145.06;100.00;60892.56;4899077;28;19916;-92
2023/07/19 05:35:16;;;;;;;;;;;;;;;-145.06;100.00;60892.56;4897164;28;19920;-91
2023/07/19 05:37:55;;;;;;;;;;;;;;;-145.06;100.00;60892.56;4892700;28;19920;-91
2023/07/19 05:40:33;;;;;;;;;;;;;;;-145.06;100.00;60892.56;4893449;28;20355;-92
2023/07/19 05:43:13;;;;;;;;;;;;;;;-145.06;100.00;60892.56;4896044;28;19916;-91
2023/07/19 05:45:52;;;;;;;;;;;;;;;-145.06;100.00;60892.56;4890100;28;19924;-91
2023/07/19 05:48:31;;;;;;;;;;;;;;;-145.06;100.00;60892.56;4896359;28;19920;-90
2023/07/19 05:51:10;;;;;;;;;;;;;;;-145.06;100.00;60892.56;4889736;28;20037;-91
2023/07/19 05:53:49;;;;;;;;;;;;;;;-145.06;100.00;60892.56;4891108;28;20003;-91
2023/07/19 05:56:28;;;;;;;;;;;;;;;-145.06;100.00;60892.56;4892737;28;19925;-91
2023/07/19 05:59:07;;;;;;;;;;;;;;;-145.06;100.00;60892.56;4892099;28;19932;-91
2023/07/19 06:01:46;;;;;;;;;;;;;;;-145.06;100.00;60892.56;4890948;28;20316;-91
2023/07/19 06:04:25;;;;;;;;;;;;;;;-145.06;100.00;60892.56;4885006;28;19925;-90
2023/07/19 06:07:04;;;;;;;;;;;;;;;-145.06;100.00;60892.56;4884933;28;19917;-91
2023/07/19 06:09:43;;;;;;;;;;;;;;;-145.06;100.00;60892.56;4886911;28;20339;-93
2023/07/19 06:12:22;;;;;;;;;;;;;;;-145.06;100.00;60892.56;4884928;28;19959;-91
2023/07/19 06:15:00;;;;;;;;;;;;;;;-145.06;100.00;60892.56;4885917;28;19946;-91
2023/07/19 06:17:40;;;;;;;;;;;;;;;-145.06;100.00;60892.56;4889082;28;19924;-91
2023/07/19 06:20:19;;;;;;;;;;;;;;;-145.06;100.00;60892.56;4888513;28;19925;-92
2023/07/19 06:22:58;;;;;;;;;;;;;;;21.08;100.00;60892.56;4894444;28;19967;-92
2023/07/19 06:25:37;;;;;;;;;;;;;;;-145.06;100.00;60892.56;4889431;28;20189;-92
2023/07/19 06:28:15;;;;;;;;;;;;;;;-145.06;100.00;60892.56;4884566;28;19920;-92
2023/07/19 06:30:57;;;;;;;;;;;;;;;21.08;100.00;60892.56;4889110;28;19924;-92
2023/07/19 06:33:36;;;;;;;;;;;;;;;-145.06;100.00;60892.56;4889893;28;19917;-92
2023/07/19 06:36:15;;;;;;;;;;;;;;;-145.06;100.00;60892.56;4892437;28;19920;-92
2023/07/19 06:38:54;;;;;;;;;;;;;;;-145.06;100.00;60892.56;4884396;28;19924;-91
2023/07/19 06:41:33;;;;;;;;;;;;;;;-145.06;100.00;60892.56;4888965;28;20260;-90
2023/07/19 06:44:12;;;;;;;;;;;;;;;-145.06;100.00;60892.56;4881331;28;19916;-91
2023/07/19 06:46:52;;;;;;;;;;;;;;;-145.06;100.00;60892.56;4886202;28;19924;-90
2023/07/19 06:49:31;;;;;;;;;;;;;;;-145.06;100.00;60892.56;4898226;28;20275;-93
2023/07/19 06:52:10;;;;;;;;;;;;;;;-145.06;100.00;60892.56;4887154;28;19916;-90
2023/07/19 06:54:49;;;;;;;;;;;;;;;-145.06;100.00;60892.56;4892248;28;19956;-92
2023/07/19 06:57:28;;;;;;;;;;;;;;;-145.06;100.00;60892.56;4892938;28;19960;-90
2023/07/19 07:00:08;;;;;;;;;;;;;;;19.47;100.00;60892.56;4892775;28;20035;-92
2023/07/19 07:02:47;;;;;;;;;;;;;;;19.54;100.00;60892.56;4898800;28;20414;-91
2023/07/19 07:05:26;;;;;;;;;;;;;;;19.78;100.00;60892.56;4897413;28;19916;-92
2023/07/19 07:08:05;;;;;;;;;;;;;;;-145.06;100.00;60892.56;4895298;28;20079;-92
2023/07/19 07:10:44;;;;;;;;;;;;;;;19.73;100.00;60892.56;4888440;28;19952;-91
2023/07/19 07:13:23;;;;;;;;;;;;;;;-145.06;100.00;60892.56;4890845;28;19920;-91
2023/07/19 07:16:02;;;;;;;;;;;;;;;-145.06;100.00;60892.56;4898974;28;20273;-92
2023/07/19 07:18:41;;;;;;;;;;;;;;;-145.06;100.00;60892.56;4893774;28;19968;-92
2023/07/19 07:21:22;;;;;;;;;;;;;;;-145.06;100.00;60892.56;4893050;28;19916;-92
2023/07/19 07:24:00;;;;;;;;;;;;;;;-145.06;100.00;60892.56;4896975;28;19959;-91
2023/07/19 07:26:39;;;;;;;;;;;;;;;-145.06;100.00;60892.56;4892103;28;19921;-92
2023/07/19 07:29:18;;;;;;;;;;;;;;;-145.06;100.00;60892.56;4896991;28;20390;-91
2023/07/19 07:31:57;;;;;;;;;;;;;;;-145.06;100.00;60892.56;4901542;28;19956;-93
2023/07/19 07:34:37;;;;;;;;;;;;;;;-145.06;100.00;60892.56;4895202;28;19912;-93
2023/07/19 07:37:16;;;;;;;;;;;;;;;-145.06;100.00;60892.56;4907395;28;20350;-92
2023/07/19 07:39:55;;;;;;;;;;;;;;;21.08;100.00;60892.56;4907502;28;19921;-92
2023/07/19 07:42:34;;;;;;;;;;;;;;;-145.06;100.00;60892.56;4921930;28;19924;-92
2023/07/19 07:45:13;;;;;;;;;;;;;;;-145.06;100.00;60892.56;4896321;28;19916;-92
2023/07/19 07:47:52;;;;;;;;;;;;;;;-145.06;100.00;60892.56;4888822;28;19913;-91
2023/07/19 07:50:31;;;;;;;;;;;;;;;-145.06;100.00;60892.56;4892294;28;20371;-91
2023/07/19 07:53:10;;;;;;;;;;;;;;;-145.06;100.00;60892.56;4894021;28;20247;-91
2023/07/19 07:55:49;;;;;;;;;;;;;;;-145.06;100.00;60892.56;4896249;28;19920;-91
2023/07/19 07:58:28;;;;;;;;;;;;;;;-145.06;100.00;60892.56;4893014;28;19917;-91
2023/07/19 08:01:07;;;;;;;;;;;;;;;-145.06;100.00;60892.56;4890538;28;20179;-91
2023/07/19 08:03:46;;;;;;;;;;;;;;;-145.06;100.00;60892.56;4893315;28;19916;-91
2023/07/19 08:06:25;;;;;;;;;;;;;;;-145.06;100.00;60892.56;4896300;28;20284;-91
2023/07/19 08:09:04;;;;;;;;;;;;;;;-145.06;100.00;60892.56;4888784;28;20350;-91
2023/07/19 08:11:43;;;;;;;;;;;;;;;-145.06;100.00;60892.56;4889357;28;20007;-91
2023/07/19 08:14:22;;;;;;;;;;;;;;;-145.06;100.00;60892.56;4891695;28;19916;-91
2023/07/19 08:17:01;;;;;;;;;;;;;;;-145.06;100.00;60892.56;4893058;28;20011;-91
2023/07/19 08:19:40;;;;;;;;;;;;;;;-145.06;100.00;60892.56;4899902;28;19912;-92
2023/07/19 08:22:26;;;;;;;;;;;;;;;-145.06;100.00;60892.56;4894956;28;19920;-92
2023/07/19 08:25:08;;;;;;;;;;;;;;;-145.06;100.00;60892.56;4914502;28;19912;-92
2023/07/19 08:27:47;;;;;;;;;;;;;;;-145.06;100.00;60892.56;4903340;28;19924;-91
2023/07/19 08:30:27;;;;;;;;;;;;;;;-145.06;100.00;60892.56;4896382;28;19928;-90
2023/07/19 08:33:08;;;;;;;;;;;;;;;-145.06;100.00;60892.56;4900520;28;20378;-91
2023/07/19 08:35:47;;;;;;;;;;;;;;;-145.06;100.00;60892.56;4895266;28;20462;-91
2023/07/19 08:38:26;;;;;;;;;;;;;;;-145.06;100.00;60892.56;4896527;28;19913;-93
2023/07/19 08:41:08;;;;;;;;;;;;;;;-145.06;100.00;60892.56;4899388;28;19916;-92
2023/07/19 08:43:48;;;;;;;;;;;;;;;-145.06;100.00;60892.56;4893696;28;20386;-91
2023/07/19 08:46:27;;;;;;;;;;;;;;;-145.06;100.00;60892.56;4892976;28;20422;-91
2023/07/19 08:49:06;;;;;;;;;;;;;;;-145.06;100.00;60892.56;4899583;28;20256;-91
2023/07/19 08:51:46;;;;;;;;;;;;;;;-145.06;100.00;60892.56;4896021;28;20244;-91
2023/07/19 08:54:25;;;;;;;;;;;;;;;-145.06;100.00;60892.56;4895933;28;20196;-91
2023/07/19 08:57:05;;;;;;;;;;;;;;;-145.06;100.00;60892.56;4894817;28;19920;-91
2023/07/19 08:59:43;;;;;;;;;;;;;;;-145.06;100.00;60892.56;4897914;28;19916;-91
2023/07/19 09:02:22;;;;;;;;;;;;;;;-145.06;100.00;60892.56;4897065;28;20027;-91
2023/07/19 09:05:04;;;;;;;;;;;;;;;-145.06;100.00;60892.56;4892209;28;19913;-91
2023/07/19 09:07:45;;;;;;;;;;;;;;;-145.06;100.00;60892.56;4914013;28;19998;-92
2023/07/19 09:10:24;;;;;;;;;;;;;;;-145.06;100.00;60892.56;4900519;28;19920;-91
2023/07/19 09:13:05;;;;;;;;;;;;;;;-145.06;100.00;60892.56;4901905;28;20004;-92
2023/07/19 09:15:46;;;;;;;;;;;;;;;-145.06;100.00;60892.56;4890355;28;19916;-92
2023/07/19 09:18:35;;;;;;;;;;;;;;;-145.06;100.00;60892.56;4901412;28;19924;-91
2023/07/19 09:21:14;;;;;;;;;;;;;;;-145.06;100.00;60892.56;4894174;28;20030;-90
2023/07/19 09:23:53;;;;;;;;;;;;;;;-145.06;100.00;60892.56;4895243;28;20337;-91
2023/07/19 09:26:47;;;;;;;;;;;;;;;-145.06;100.00;60892.56;4894372;28;20183;-92
2023/07/19 09:29:33;;;;;;;;;;;;;;;-145.06;100.00;60892.56;4900394;28;19924;-92
2023/07/19 09:32:15;;;;;;;;;;;;;;;-145.06;100.00;60892.56;4895750;28;20435;-91
2023/07/19 09:34:54;;;;;;;;;;;;;;;-145.06;100.00;60892.56;4901880;28;19912;-91
2023/07/19 09:37:34;;;;;;;;;;;;;;;-145.06;100.00;60892.56;4893723;28;19917;-92
2023/07/19 09:40:13;;;;;;;;;;;;;;;-145.06;100.00;60892.56;4895494;28;19916;-91
2023/07/19 09:42:52;;;;;;;;;;;;;;;-145.06;100.00;60892.56;4891835;28;19916;-91
2023/07/19 09:45:32;;;;;;;;;;;;;;;-145.06;100.00;60892.56;4887795;28;19920;-91
2023/07/19 09:48:12;;;;;;;;;;;;;;;-145.06;100.00;60892.56;4903524;28;19919;-92
2023/07/19 09:50:53;;;;;;;;;;;;;;;-145.06;100.00;60892.56;4897414;28;19932;-92
2023/07/19 09:53:33;;;;;;;;;;;;;;;-145.06;100.00;60892.56;4894149;28;20359;-92
2023/07/19 09:56:12;;;;;;;;;;;;;;;-145.06;100.00;60892.56;4892356;28;19916;-91
2023/07/19 09:58:51;;;;;;;;;;;;;;;-145.06;100.00;60892.56;4897956;28;20259;-92
2023/07/19 10:01:30;;;;;;;;;;;;;;;-145.06;100.00;60892.56;4896028;28;19917;-93
2023/07/19 10:04:26;;;;;;;;;;;;;;;-145.06;100.00;60892.56;4902319;28;19917;-93
2023/07/19 10:07:12;;;;;;;;;;;;;;;-145.06;100.00;60892.56;4900154;28;19916;-92
2023/07/19 10:10:01;;;;;;;;;;;;;;;-145.06;100.00;60892.56;4898010;28;19920;-93
2023/07/19 10:12:45;;;;;;;;;;;;;;;-145.06;100.00;60892.56;4895600;28;19917;-92
2023/07/19 10:15:24;;;;;;;;;;;;;;;-145.06;100.00;60892.56;4893696;28;19944;-91
2023/07/19 10:18:10;;;;;;;;;;;;;;;-145.06;100.00;60892.56;4893530;28;19960;-91
2023/07/19 10:21:00;;;;;;;;;;;;;;;-145.06;100.00;60892.56;4892886;28;19956;-92
2023/07/19 10:23:44;;;;;;;;;;;;;;;-145.06;100.00;60892.56;4907066;28;20634;-91
2023/07/19 10:26:30;;;;;;;;;;;;;;;-145.06;100.00;60892.56;4891846;28;20267;-92
2023/07/19 10:29:09;;;;;;;;;;;;;;;-145.06;100.00;60892.56;4891770;28;19921;-91
2023/07/19 10:31:48;;;;;;;;;;;;;;;-145.06;100.00;60892.56;4894637;28;19944;-92
2023/07/19 10:34:28;;;;;;;;;;;;;;;-145.06;100.00;60892.56;4896203;28;20421;-92
2023/07/19 10:37:07;;;;;;;;;;;;;;;-145.06;100.00;60892.56;4891172;28;20164;-92
2023/07/19 10:39:46;;;;;;;;;;;;;;;-145.06;100.00;60892.56;4891107;28;19916;-92
2023/07/19 10:42:25;;;;;;;;;;;;;;;-145.06;100.00;60892.56;4897785;28;19912;-91
2023/07/19 10:45:05;;;;;;;;;;;;;;;-145.06;100.00;60892.56;4894782;28;19920;-91
2023/07/19 10:47:44;;;;;;;;;;;;;;;-145.06;100.00;60892.56;4893154;28;20370;-92
2023/07/19 10:50:24;;;;;;;;;;;;;;;-145.06;100.00;60892.56;4891667;28;19920;-92
2023/07/19 10:53:02;;;;;;;;;;;;;;;-145.06;100.00;60892.56;4901287;28;20398;-91
2023/07/19 10:55:42;;;;;;;;;;;;;;;-145.06;100.00;60892.56;4917357;28;19912;-90
2023/07/19 10:58:21;;;;;;;;;;;;;;;-145.06;100.00;60892.56;4910016;28;19952;-90
2023/07/19 11:01:01;;;;;;;;;;;;;;;-145.06;100.00;60892.56;4889685;28;19916;-91
2023/07/19 11:03:44;;;;;;;;;;;;;;;-145.06;100.00;60892.56;4895960;28;19913;-91
2023/07/19 11:06:23;;;;;;;;;;;;;;;-145.06;100.00;60892.56;4895115;28;20007;-92
2023/07/19 11:09:02;;;;;;;;;;;;;;;-145.06;100.00;60892.56;4893373;28;20374;-91
2023/07/19 11:11:42;;;;;;;;;;;;;;;-145.06;100.00;60892.56;4893630;28;19916;-91
2023/07/19 11:14:27;;;;;;;;;;;;;;;-145.06;100.00;60892.56;4896207;28;19944;-94
2023/07/19 11:17:06;;;;;;;;;;;;;;;-145.06;100.00;60892.56;4897713;28;20354;-92
2023/07/19 11:19:45;;;;;;;;;;;;;;;-145.06;100.00;60892.56;4897560;28;19916;-93
2023/07/19 11:22:35;;;;;;;;;;;;;;;-145.06;100.00;60892.56;4892614;28;19913;-93
2023/07/19 11:25:17;;;;;;;;;;;;;;;-145.06;100.00;60892.56;4892176;28;19961;-93
2023/07/19 11:27:56;;;;;;;;;;;;;;;-145.06;100.00;60892.56;4896652;28;19939;-93
2023/07/19 11:30:39;;;;;;;;;;;;;;;-145.06;100.00;60892.56;4894501;28;19964;-92
2023/07/19 11:33:18;;;;;;;;;;;;;;;-145.06;100.00;60892.56;4892492;28;19920;-91
2023/07/19 11:35:57;;;;;;;;;;;;;;;-145.06;100.00;60892.56;4895871;28;19916;-94
2023/07/19 11:39:28;;;;;;;;;;;;;;;-145.06;100.00;60892.56;4904490;28;19912;-95
2023/07/19 11:45:46;;;;;;;;;;;;;;;-145.06;100.00;60892.56;4844652;28;19913;-94
2023/07/19 11:48:26;;;;;;;;;;;;;;;-145.06;100.00;60892.56;4838216;28;19943;-94
2023/07/19 11:51:07;;;;;;;;;;;;;;;-145.06;100.00;60892.56;4888655;28;19913;-94
2023/07/19 11:53:47;;;;;;;;;;;;;;;-145.06;100.00;60892.56;4901076;28;19912;-94
2023/07/19 11:56:28;;;;;;;;;;;;;;;-145.06;100.00;60892.56;4900696;28;19913;-95
2023/07/19 12:01:37;;;;;;;;;;;;;;;-145.06;100.00;60892.56;4927610;22;19982;-92
2023/07/19 12:04:16;;;;;;;;;;;;;;;-145.06;100.00;60892.56;4847124;28;19913;-93
2023/07/19 12:06:55;;;;;;;;;;;;;;;-145.06;100.00;60892.56;4847533;28;19917;-93
2023/07/19 12:09:34;;;;;;;;;;;;;;;-145.06;100.00;60892.56;4847573;28;19917;-91
2023/07/19 12:12:13;;;;;;;;;;;;;;;-145.06;100.00;60892.56;4830331;28;19913;-94
2023/07/19 12:14:53;;;;;;;;;;;;;;;-145.06;100.00;60892.56;4828019;28;19949;-92
2023/07/19 12:17:33;;;;;;;;;;;;;;;-145.06;100.00;60892.56;4828785;28;19918;-94
2023/07/19 12:20:31;;;;;;;;;;;;;;;-145.06;100.00;60892.56;4828378;28;19917;-94
2023/07/19 12:23:10;;;;;;;;;;;;;;;-145.06;100.00;60892.56;4836444;28;19913;-94
2023/07/19 12:26:06;;;;;;;;;;;;;;;-145.06;100.00;60892.56;4828764;28;20355;-95
2023/07/19 12:28:47;;;;;;;;;;;;;;;-145.06;100.00;60892.56;4828748;28;19913;-94
2023/07/19 12:35:19;;;;;;;;;;;;;;;-145.06;100.00;60892.56;4809714;28;19949;-95
2023/07/19 12:38:01;;;;;;;;;;;;;;;-145.06;100.00;60892.56;4822883;28;20000;-93
2023/07/19 12:40:40;;;;;;;;;;;;;;;-145.06;100.00;60892.56;4810109;28;19917;-94
2023/07/19 12:47:32;;;;;;;;;;;;;;;-145.06;100.00;60892.56;4766826;29;19919;-95
2023/07/19 12:50:20;;;;;;;;;;;;;;;-145.06;100.00;60892.56;4766178;29;19915;-94
2023/07/19 12:53:28;;;;;;;;;;;;;;;-145.06;100.00;60892.56;4752308;29;19915;-94
2023/07/19 13:08:01;;;;;;;;;;;;;;;-145.06;100.00;60892.56;5585705;22;19925;-94
2023/07/19 13:14:13;;;;;;;;;;;;;;;-145.06;100.00;60892.56;4828602;28;19913;-94
2023/07/19 13:16:55;;;;;;;;;;;;;;;-145.06;100.00;60892.56;4838507;28;20264;-95
2023/07/19 13:19:59;;;;;;;;;;;;;;;-145.06;100.00;60892.56;4860010;28;19921;-94
2023/07/19 13:22:50;;;;;;;;;;;;;;;-145.06;100.00;60892.56;4864378;28;19917;-95
2023/07/19 13:32:03;;;;;;;;;;;;;;;-145.06;100.00;60892.56;5042130;22;19925;-93
2023/07/19 13:38:12;;;;;;;;;;;;;;;-145.06;100.00;60892.56;4835046;28;20395;-95
2023/07/19 13:40:54;;;;;;;;;;;;;;;-145.06;100.00;60892.56;5163498;22;19928;-95
2023/07/19 13:46:50;;;;;;;;;;;;;;;-145.06;100.00;60892.56;4881829;28;20233;-91
2023/07/19 13:49:29;;;;;;;;;;;;;;;-145.06;100.00;60892.56;4880531;28;19912;-92
2023/07/19 13:52:09;;;;;;;;;;;;;;;-145.06;100.00;60892.56;4875867;28;20007;-94
2023/07/19 13:58:07;;;;;;;;;;;;;;;-145.06;100.00;60892.56;4883313;28;19995;-93
2023/07/19 14:00:46;;;;;;;;;;;;;;;-145.06;100.00;60892.56;4877211;28;19921;-92
2023/07/19 14:06:25;;;;;;;;;;;;;;;-145.06;100.00;60892.56;4874324;28;19920;-92
2023/07/19 14:12:08;;;;;;;;;;;;;;;-145.06;100.00;60892.56;5881247;22;19959;-93
2023/07/19 14:14:56;;;;;;;;;;;;;;;-145.06;100.00;60892.56;4882621;28;20267;-94
2023/07/19 14:18:10;;;;;;;;;;;;;;;-145.06;100.00;60892.56;4879866;28;19913;-91
2023/07/19 14:24:49;;;;;;;;;;;;;;;-145.06;100.00;60892.56;4821997;28;19953;-92